Flight Track Log - Related Links

Times and Time Zones

All times are in EDT time to prevent confusion due to time zone crossing. See the FLG3432 flight status page for this flight to view local times or setup timezone preferences in your user account.

Time Position Orientation Groundspeed Altitude Reporting Facility
EDT Latitude Longitude Course Direction KTS MPH feet Rate Location/Type
Sat 12:38:21 PM 42.2033 -83.3722 208° Southwest 170 196 1,300  Level Cleveland Center
Sat 12:39:11 PM 42.1694 -83.3961 208° Southwest 200 230 2,900 2,217 Climbing Cleveland Center
Sat 12:40:39 PM 42.0908 -83.4542 209° Southwest 241 277 6,400 2,432 Climbing Cleveland Center
Sat 12:41:39 PM 42.0311 -83.5017 211° Southwest 254 292 8,900 2,300 Climbing Cleveland Center
Sat 12:42:39 PM 41.9483 -83.5650 210° Southwest 290 334 11,000 2,050 Climbing Cleveland Center
Sat 12:43:39 PM 41.8672 -83.6308 211° Southwest 327 376 13,000 1,450 Climbing Cleveland Center
Sat 12:44:39 PM 41.7797 -83.7047 212° Southwest 357 411 13,900 1,700 Climbing Cleveland Center
Sat 12:45:39 PM 41.6922 -83.7811 213° Southwest 377 434 16,400 2,400 Climbing Cleveland Center
Sat 12:46:39 PM 41.6047 -83.8519 211° Southwest 377 434 18,700 1,800 Climbing Cleveland Center
Sat 12:47:39 PM 41.5128 -83.9275 212° Southwest 382 440 20,000 650 Climbing Cleveland Center
Sat 12:48:39 PM 41.4169 -84.0003 210° Southwest 388 447 20,000  Level Cleveland Center
Sat 12:49:39 PM 41.3272 -84.0728 211° Southwest 394 453 20,000  Level Cleveland Center
Sat 12:50:39 PM 41.2411 -84.1594 217° Southwest 394 453 20,000  Level Cleveland Center
Sat 12:51:39 PM 41.2075 -84.2928 252° West 368 423 20,000  Level Cleveland Center
Sat 12:52:54 PM 41.1708 -84.4392 252° West 371 427 20,000  Level Chicago Center
Sat 12:53:56 PM 41.1381 -84.5681 251° West 369 425 20,000  Level Chicago Center
Sat 12:54:58 PM 41.1056 -84.6975 252° West 370 426 20,000  Level Chicago Center
Sat 12:56:00 PM 41.0628 -84.8519 250° West 372 428 20,000  Level Chicago Center
Sat 12:57:02 PM 40.9647 -84.9278 210° Southwest 402 463 20,000  Level Chicago Center
Sat 12:58:04 PM 40.8625 -84.9931 206° Southwest 407 468 20,000  Level Chicago Center
Sat 12:59:07 PM 40.7600 -85.0600 206° Southwest 409 471 20,000  Level Chicago Center
Sat 01:00:09 PM 40.6564 -85.1250 205° Southwest 411 473 20,000  Level Chicago Center
Sat 01:01:11 PM 40.5522 -85.1922 206° Southwest 412 474 20,000 -726 Level Chicago Center
Sat 01:02:13 PM 40.4267 -85.2739 206° Southwest 416 479 18,500 -1,597 Descending Chicago Center
Sat 01:03:15 PM 40.3222 -85.3400 206° Southwest 418 481 16,700 -1,790 Descending Chicago Center
Sat 01:04:17 PM 40.2225 -85.4058 207° Southwest 412 474 14,800 -1,736 Descending Chicago Center
Sat 01:05:54 PM 40.1500 -85.6000 244° Southwest 354 407 12,100 -1,452 Descending Indianapolis TRACON
Sat 01:06:54 PM 40.1000 -85.7167 241° Southwest 341 392 11,000 -710 Descending Indianapolis TRACON
Sat 01:07:27 PM 40.0767 -85.7661 238° Southwest 342 394 11,000  Level Indianapolis Center
Sat 01:08:29 PM 40.0303 -85.8731 240° Southwest 339 390 11,000  Level Indianapolis Center
Sat 01:09:31 PM 39.9833 -85.9819 241° Southwest 345 397 11,000 -387 Level Indianapolis Center
Sat 01:10:33 PM 39.9364 -86.0892 240° Southwest 344 396 10,200 -823 Descending Indianapolis Center
Sat 01:11:35 PM 39.8900 -86.1958 240° Southwest 285 328 9,300 -1,210 Descending Indianapolis Center
Sat 01:12:37 PM 39.8536 -86.2772 240° Southwest 267 307 7,700 -1,122 Descending Indianapolis Center
Sat 01:13:38 PM 39.8047 -86.3453 227° Southwest 268 308 7,000 -878 Descending Indianapolis Center
Sat 01:14:40 PM 39.7553 -86.4050 223° Southwest 254 292 5,900 -1,403 Descending Indianapolis Center
Sat 01:15:42 PM 39.6997 -86.4722 223° Southwest 236 272 4,100 -1,113 Descending Indianapolis Center
Sat 01:16:44 PM 39.6567 -86.5256 224° Southwest 226 260 3,600 -532 Descending Indianapolis Center
Sat 01:17:46 PM 39.6056 -86.5314 185° South 231 266 3,000 -290 Descending Indianapolis Center
Sat 01:18:48 PM 39.5906 -86.4669 107° East 219 252 3,000 -48 Level Indianapolis Center
Sat 01:19:50 PM 39.6300 -86.4181 44° Northeast 205 236 2,900 -484 Descending Indianapolis Center
Sat 01:20:52 PM 39.6633 -86.3758 44° Northeast 187 215 2,000 -871 Descending Indianapolis Center
Sat 01:21:54 PM 39.6975 -86.3322 44° Northeast 162 186 1,100 -581 Descending Indianapolis Center
Sat 01:22:56 PM 39.7222 -86.3000 45° Northeast 154 177 800 -290 Descending Indianapolis Center

Login

Don't have an account? Register now (free) for customized features, flight alerts, and more!